createdAt,value
2018-08-23T15:49:58.748Z,41.6
2018-08-23T15:55:03.123Z,41.6
2018-08-23T16:00:02.550Z,40.3
2018-08-23T16:05:02.548Z,41.2
2018-08-23T16:10:02.524Z,40.8
2018-08-23T16:15:02.683Z,41.8
2018-08-23T16:20:02.531Z,41.3
2018-08-23T16:25:03.023Z,41.1
2018-08-23T16:30:02.561Z,39.8
2018-08-23T16:35:02.725Z,40.5
2018-08-23T16:40:14.957Z,39.1
2018-08-23T16:45:14.633Z,39.7
2018-08-23T16:50:14.806Z,39.6
2018-08-23T16:55:14.706Z,39.9
2018-08-23T17:00:14.892Z,40.1
2018-08-23T17:05:14.680Z,40.3
2018-08-23T17:10:15.088Z,41.1
2018-08-23T17:15:14.712Z,41.1
2018-08-23T17:20:14.696Z,41.7
2018-08-23T17:25:15.006Z,43.5
2018-08-23T17:30:15.301Z,43.5
2018-08-23T17:35:14.929Z,44.6
2018-08-23T17:40:14.833Z,44.2
2018-08-23T17:45:14.873Z,45.3
2018-08-23T17:50:27.739Z,45.4
2018-08-23T17:55:27.454Z,46
2018-08-23T18:00:27.467Z,47.2
2018-08-23T18:05:27.603Z,49.1
2018-08-23T18:10:27.657Z,49.2
2018-08-23T18:15:27.471Z,49.1
2018-08-23T18:20:27.954Z,52.1
2018-08-23T18:25:28.963Z,53.5
2018-08-23T18:30:28.584Z,54.1
2018-08-23T18:35:41.413Z,54.9
2018-08-23T18:40:41.095Z,56
2018-08-23T18:45:41.161Z,56.1
2018-08-23T18:50:41.094Z,56.9
2018-08-23T18:55:41.133Z,58
2018-08-23T19:00:41.146Z,57.5
2018-08-23T19:05:41.233Z,57.2
2018-08-23T19:10:41.147Z,51
2018-08-23T19:15:41.139Z,49.4
2018-08-23T19:20:52.921Z,49.7
2018-08-23T19:25:52.617Z,50
2018-08-23T19:30:52.674Z,48
2018-08-23T19:35:52.716Z,48.1
2018-08-23T19:40:52.640Z,48.8
2018-08-23T19:45:52.653Z,48.6
2018-08-23T19:50:53.102Z,49.3
2018-08-23T19:55:52.654Z,50.3
2018-08-23T20:00:52.651Z,49.9
2018-08-23T20:06:04.228Z,49.9
2018-08-23T20:11:03.946Z,50.7
2018-08-23T20:16:04.147Z,49.8
2018-08-23T20:21:03.976Z,50.8
2018-08-23T20:26:03.958Z,51
2018-08-23T20:31:03.973Z,51.6
2018-08-23T20:36:04.201Z,52.8
2018-08-23T20:41:04.431Z,53
2018-08-23T20:46:04.368Z,53.4
2018-08-23T20:51:16.472Z,52.4
2018-08-23T20:56:16.407Z,51.6
2018-08-23T21:01:16.195Z,51.1
2018-08-23T21:06:16.212Z,50.9
2018-08-23T21:11:16.194Z,52.3
2018-08-23T21:16:16.184Z,51.6
2018-08-23T21:21:16.537Z,52.3
2018-08-23T21:26:21.509Z,51.6
2018-08-23T21:31:21.337Z,51.7
2018-08-23T21:36:33.719Z,51.2
2018-08-23T21:41:33.622Z,51.5
2018-08-23T21:46:33.527Z,50.7
2018-08-23T21:51:33.371Z,52
2018-08-23T21:56:33.624Z,52.3
2018-08-23T22:01:33.664Z,53.8
2018-08-23T22:06:33.519Z,53
2018-08-23T22:11:36.520Z,54.3
2018-08-23T22:16:36.390Z,53.2
2018-08-23T22:21:46.654Z,53.8
2018-08-23T22:26:46.899Z,53.4
2018-08-23T22:31:46.519Z,53.6
2018-08-23T22:36:46.594Z,54.4
2018-08-23T22:41:46.624Z,55.6
2018-08-23T22:46:46.545Z,55.5
2018-08-23T22:51:46.602Z,54.9
2018-08-23T22:56:46.627Z,55.3
2018-08-23T23:01:46.744Z,56
2018-08-23T23:06:59.013Z,57.3
2018-08-23T23:11:58.884Z,56.8
2018-08-23T23:16:58.944Z,56.8
2018-08-23T23:21:58.853Z,57.3
2018-08-23T23:26:58.735Z,56.3
2018-08-23T23:31:58.743Z,57.4
2018-08-23T23:36:58.738Z,58.7
2018-08-23T23:41:58.928Z,58.1
2018-08-23T23:46:59.036Z,58.9
2018-08-23T23:52:11.226Z,59.8
2018-08-23T23:57:10.956Z,58.6
